Time;durP1;ratioP1;P1;durP2;ratioP2;P2;SDS_P1;SDS_P2;PMS_P1;PMS_P2;Temp;Humidity;BMP_temperature;BMP_pressure;BME280_temperature;BME280_humidity;BME280_pressure;Samples;Min_cycle;Max_cycle;Signal;HPM_P1;HPM_P2
2023/07/22 00:02:20;;;;;;;16.07;7.40;;;13.40;99.90;;;;;;5011920;28;20439;-73
2023/07/22 00:04:46;;;;;;;13.48;7.10;;;13.40;99.90;;;;;;5010540;28;20504;-73
2023/07/22 00:07:11;;;;;;;14.73;7.40;;;13.30;99.90;;;;;;4997475;28;20509;-73
2023/07/22 00:09:38;;;;;;;13.88;7.25;;;13.30;99.90;;;;;;5008865;28;20766;-73
2023/07/22 00:12:04;;;;;;;14.52;7.30;;;13.20;99.90;;;;;;4994449;28;20475;-73
2023/07/22 00:14:30;;;;;;;19.27;7.57;;;;;;;;;;5011815;28;20761;-73
2023/07/22 00:16:56;;;;;;;17.50;7.70;;;13.20;99.90;;;;;;5011243;28;20413;-73
2023/07/22 00:19:23;;;;;;;14.27;7.15;;;13.40;99.90;;;;;;5007177;28;20420;-73
2023/07/22 00:21:49;;;;;;;13.70;7.10;;;;;;;;;;5026782;28;20432;-73
2023/07/22 00:24:15;;;;;;;13.88;7.63;;;13.30;99.90;;;;;;4990996;28;20446;-73
2023/07/22 00:26:41;;;;;;;13.40;6.93;;;13.20;99.90;;;;;;5005432;28;20421;-73
2023/07/22 00:29:07;;;;;;;14.88;6.93;;;;;;;;;;4984392;28;20437;-73
2023/07/22 00:31:33;;;;;;;15.13;7.63;;;13.20;99.90;;;;;;4991774;28;20406;-72
2023/07/22 00:33:59;;;;;;;14.70;7.13;;;;;;;;;;5002315;28;20851;-73
2023/07/22 00:36:25;;;;;;;14.77;7.65;;;13.30;99.90;;;;;;5010417;28;20889;-73
2023/07/22 00:38:52;;;;;;;15.02;7.57;;;13.30;99.90;;;;;;5008617;28;20551;-73
2023/07/22 00:41:19;;;;;;;15.25;7.55;;;13.10;99.90;;;;;;5008240;28;20501;-74
2023/07/22 00:43:45;;;;;;;16.98;7.82;;;;;;;;;;5010500;28;20405;-73
2023/07/22 00:46:10;;;;;;;12.23;6.43;;;13.20;99.90;;;;;;5010264;28;20428;-72
2023/07/22 00:48:37;;;;;;;18.03;7.47;;;;;;;;;;5008963;28;20488;-73
2023/07/22 00:51:03;;;;;;;12.55;7.28;;;13.10;99.90;;;;;;5010095;28;20508;-73
2023/07/22 00:53:28;;;;;;;16.85;7.20;;;13.00;99.90;;;;;;5009683;28;20511;-74
2023/07/22 00:55:54;;;;;;;17.15;7.68;;;12.90;99.90;;;;;;5010354;28;20504;-73
2023/07/22 00:58:21;;;;;;;16.00;7.28;;;13.00;99.90;;;;;;4992144;28;20796;-73
2023/07/22 01:00:47;;;;;;;15.65;7.70;;;;;;;;;;5009750;28;20424;-72
2023/07/22 01:03:13;;;;;;;15.53;7.67;;;12.70;99.90;;;;;;5010470;28;20433;-73
2023/07/22 01:05:39;;;;;;;18.30;7.80;;;13.00;99.90;;;;;;5010688;28;20432;-73
2023/07/22 01:08:06;;;;;;;14.68;7.28;;;13.00;99.90;;;;;;5008088;28;20425;-70
2023/07/22 01:10:31;;;;;;;15.67;6.97;;;13.10;99.90;;;;;;5009771;28;20424;-73
2023/07/22 01:12:57;;;;;;;12.23;6.80;;;12.70;99.90;;;;;;5006390;28;20422;-72
2023/07/22 01:15:24;;;;;;;13.33;7.10;;;13.00;99.90;;;;;;5008613;28;20436;-73
2023/07/22 01:17:50;;;;;;;16.93;6.57;;;12.80;99.90;;;;;;5005925;28;20518;-72
2023/07/22 01:20:18;;;;;;;13.85;7.05;;;;;;;;;;4992633;28;20428;-72
2023/07/22 01:22:54;;;;;;;11.02;6.50;;;12.80;99.90;;;;;;5010573;28;20420;-72
2023/07/22 01:25:21;;;;;;;15.80;7.00;;;13.10;99.90;;;;;;5010434;28;20493;-72
2023/07/22 01:27:48;;;;;;;12.98;6.40;;;12.90;99.90;;;;;;4992946;28;20553;-72
2023/07/22 01:30:14;;;;;;;11.10;5.95;;;;;;;;;;5010582;28;20916;-71
2023/07/22 01:32:40;;;;;;;13.88;6.53;;;;;;;;;;5009257;28;20515;-72
2023/07/22 01:35:07;;;;;;;11.25;6.15;;;12.70;99.90;;;;;;5001155;28;20461;-72
2023/07/22 01:37:33;;;;;;;12.60;6.17;;;12.60;99.90;;;;;;5010813;28;20572;-72
2023/07/22 01:39:59;;;;;;;11.55;6.22;;;12.70;99.90;;;;;;5008611;28;22007;-72
2023/07/22 01:42:25;;;;;;;11.13;6.18;;;12.60;99.90;;;;;;5010537;28;20415;-72
2023/07/22 01:44:51;;;;;;;10.35;5.57;;;;;;;;;;5008982;28;20424;-72
2023/07/22 01:47:17;;;;;;;11.80;6.00;;;12.70;99.90;;;;;;5010690;28;20467;-72
2023/07/22 01:49:44;;;;;;;13.15;5.82;;;12.80;99.90;;;;;;5011171;28;20468;-72
2023/07/22 01:52:10;;;;;;;10.60;5.88;;;12.90;99.90;;;;;;4996322;28;20880;-72
2023/07/22 01:54:36;;;;;;;14.00;6.82;;;12.80;99.90;;;;;;5014242;28;20440;-71
2023/07/22 01:57:01;;;;;;;15.38;6.55;;;12.90;99.90;;;;;;5013456;28;20474;-72
2023/07/22 01:59:27;;;;;;;13.45;6.90;;;12.80;99.90;;;;;;4985906;28;20429;-72
2023/07/22 02:01:53;;;;;;;12.20;6.43;;;12.60;99.90;;;;;;5007264;28;20482;-72
2023/07/22 02:04:19;;;;;;;14.63;7.07;;;;;;;;;;4997778;28;20436;-73
2023/07/22 02:06:46;;;;;;;11.60;6.22;;;12.80;99.90;;;;;;5013457;28;20908;-72
2023/07/22 02:09:13;;;;;;;22.55;7.10;;;;;;;;;;4994726;28;20459;-72
2023/07/22 02:11:39;;;;;;;13.25;6.80;;;12.70;99.90;;;;;;5014279;28;20458;-72
2023/07/22 02:14:06;;;;;;;11.90;6.63;;;12.50;99.90;;;;;;5012078;28;20432;-72
2023/07/22 02:16:39;;;;;;;15.30;7.60;;;12.70;99.90;;;;;;5013029;28;20421;-72
2023/07/22 02:19:05;;;;;;;13.90;7.70;;;12.70;99.90;;;;;;5011897;28;20928;-72
2023/07/22 02:21:31;;;;;;;16.15;7.85;;;;;;;;;;5013213;28;20424;-72
2023/07/22 02:23:57;;;;;;;14.73;7.50;;;;;;;;;;5012257;28;20496;-72
2023/07/22 02:26:23;;;;;;;17.15;8.20;;;12.40;99.90;;;;;;5012854;28;20433;-73
2023/07/22 02:28:49;;;;;;;17.00;8.27;;;12.50;99.90;;;;;;5009006;28;20421;-73
2023/07/22 02:31:15;;;;;;;15.50;7.97;;;;;;;;;;5013509;28;20419;-73
2023/07/22 02:33:41;;;;;;;16.63;8.70;;;;;;;;;;5013596;28;20401;-72
2023/07/22 02:36:07;;;;;;;16.42;7.72;;;12.40;99.90;;;;;;5012323;28;20435;-72
2023/07/22 02:38:32;;;;;;;18.20;8.43;;;12.30;99.90;;;;;;4993791;28;20424;-73
2023/07/22 02:41:03;;;;;;;18.23;8.85;;;12.40;99.90;;;;;;4978394;28;20485;-72
2023/07/22 02:43:29;;;;;;;14.82;8.27;;;;;;;;;;4988878;28;20434;-73
2023/07/22 02:45:55;;;;;;;16.73;7.82;;;;;;;;;;4997513;28;20813;-72
2023/07/22 02:48:21;;;;;;;16.88;8.20;;;;;;;;;;5012445;28;20401;-73
2023/07/22 02:50:47;;;;;;;14.07;7.68;;;12.50;99.90;;;;;;4995838;28;20718;-73
2023/07/22 02:53:12;;;;;;;15.80;7.55;;;12.50;99.90;;;;;;5013181;28;20447;-73
2023/07/22 02:55:39;;;;;;;15.93;8.00;;;;;;;;;;5011509;28;20455;-73
2023/07/22 02:58:05;;;;;;;15.45;7.65;;;12.60;99.90;;;;;;4992213;28;20422;-73
2023/07/22 03:00:31;;;;;;;17.77;7.57;;;12.40;99.90;;;;;;5008311;28;20508;-73
2023/07/22 03:03:00;;;;;;;15.68;7.50;;;12.50;99.90;;;;;;4993372;28;20472;-74
2023/07/22 03:05:28;;;;;;;15.68;7.90;;;;;;;;;;4993193;28;20426;-73
2023/07/22 03:07:54;;;;;;;15.27;7.63;;;;;;;;;;5010124;28;20431;-73
2023/07/22 03:10:20;;;;;;;14.90;7.70;;;12.60;99.90;;;;;;4997666;28;20944;-73
2023/07/22 03:12:46;;;;;;;15.15;8.05;;;12.40;99.90;;;;;;5007898;28;20428;-73
2023/07/22 03:15:12;;;;;;;13.57;7.47;;;;;;;;;;5011898;28;20427;-73
2023/07/22 03:17:41;;;;;;;14.82;7.32;;;12.50;99.90;;;;;;4995679;28;20432;-73
2023/07/22 03:20:13;;;;;;;15.98;8.07;;;;;;;;;;5011696;28;20508;-73
2023/07/22 03:22:39;;;;;;;16.95;8.05;;;12.40;99.90;;;;;;5012381;28;20425;-72
2023/07/22 03:25:08;;;;;;;16.07;7.77;;;12.30;99.90;;;;;;5012836;28;20943;-73
2023/07/22 03:27:34;;;;;;;14.03;7.67;;;;;;;;;;4999338;28;20779;-73
2023/07/22 03:29:59;;;;;;;15.35;7.78;;;12.30;99.90;;;;;;5011429;28;20420;-72
2023/07/22 03:32:25;;;;;;;15.43;8.23;;;12.20;99.90;;;;;;4995896;28;20411;-73
2023/07/22 03:34:52;;;;;;;15.57;8.27;;;12.10;99.90;;;;;;5012213;28;20412;-72
2023/07/22 03:37:20;;;;;;;15.40;8.23;;;;;;;;;;5009596;28;20436;-73
2023/07/22 03:39:46;;;;;;;17.00;8.82;;;12.30;99.90;;;;;;5011139;28;20432;-73
2023/07/22 03:42:11;;;;;;;15.63;7.70;;;12.30;99.90;;;;;;5012330;28;20431;-77
2023/07/22 03:44:37;;;;;;;15.40;8.45;;;12.40;99.90;;;;;;5010631;28;20433;-77
2023/07/22 03:47:03;;;;;;;15.38;8.02;;;12.50;99.90;;;;;;4990226;28;20429;-77
2023/07/22 03:49:29;;;;;;;15.27;8.55;;;12.20;99.90;;;;;;4995173;28;20421;-77
2023/07/22 03:51:54;;;;;;;15.38;8.30;;;12.40;99.90;;;;;;5010437;28;20758;-77
2023/07/22 03:54:20;;;;;;;13.77;7.88;;;12.30;99.90;;;;;;4995695;28;20404;-76
2023/07/22 03:56:46;;;;;;;18.30;8.20;;;12.60;99.90;;;;;;4992468;28;20430;-76
2023/07/22 03:59:12;;;;;;;14.50;7.80;;;;;;;;;;5006499;28;20437;-76
2023/07/22 04:01:37;;;;;;;14.38;7.63;;;12.60;99.90;;;;;;5009573;28;20920;-76
2023/07/22 04:04:03;;;;;;;14.73;7.90;;;12.70;99.90;;;;;;5011125;28;20420;-76
2023/07/22 04:06:29;;;;;;;14.32;7.63;;;12.70;99.90;;;;;;5010464;28;20416;-77
2023/07/22 04:08:55;;;;;;;14.18;7.43;;;;;;;;;;4992769;28;20499;-76
2023/07/22 04:11:21;;;;;;;15.63;7.63;;;12.70;99.90;;;;;;5010780;28;20465;-76
2023/07/22 04:13:48;;;;;;;14.27;7.90;;;13.00;99.90;;;;;;4995665;28;20467;-76
2023/07/22 04:16:14;;;;;;;15.27;7.97;;;12.70;99.90;;;;;;5011649;28;20492;-76
2023/07/22 04:18:39;;;;;;;16.00;7.37;;;12.80;99.90;;;;;;4991324;28;20511;-76
2023/07/22 04:21:05;;;;;;;13.60;7.57;;;12.80;99.90;;;;;;5010466;28;20546;-76
2023/07/22 04:23:33;;;;;;;15.00;8.48;;;12.60;99.90;;;;;;5011504;28;20409;-76
2023/07/22 04:25:59;;;;;;;14.88;8.20;;;;;;;;;;5009571;28;20439;-76
2023/07/22 04:28:24;;;;;;;17.52;8.50;;;12.80;99.90;;;;;;4994197;28;20431;-76
2023/07/22 04:30:58;;;;;;;14.77;8.13;;;13.00;99.90;;;;;;5011050;28;20436;-75
2023/07/22 04:33:25;;;;;;;21.70;8.40;;;12.70;99.90;;;;;;5010327;28;20425;-76
2023/07/22 04:35:53;;;;;;;15.45;8.30;;;;;;;;;;5009079;28;20421;-76
2023/07/22 04:38:19;;;;;;;14.98;8.70;;;12.80;99.90;;;;;;5010978;28;20421;-77
2023/07/22 04:40:45;;;;;;;14.85;8.30;;;12.50;99.90;;;;;;5010186;28;20508;-76
2023/07/22 04:43:12;;;;;;;18.50;8.60;;;;;;;;;;5011077;28;20826;-77
2023/07/22 04:45:40;;;;;;;14.95;8.15;;;13.00;99.90;;;;;;5011083;28;20428;-77
2023/07/22 04:48:06;;;;;;;16.33;8.70;;;13.00;99.90;;;;;;4991459;28;20519;-77
2023/07/22 04:50:32;;;;;;;17.88;8.65;;;13.00;99.90;;;;;;5009402;28;20460;-77
2023/07/22 04:52:58;;;;;;;17.00;8.82;;;13.00;99.90;;;;;;5009707;28;20998;-77
2023/07/22 04:55:24;;;;;;;16.07;9.20;;;;;;;;;;5010926;28;20412;-77
2023/07/22 04:57:51;;;;;;;17.55;8.65;;;13.10;99.90;;;;;;4993186;28;20471;-77
2023/07/22 05:00:19;;;;;;;16.40;9.23;;;13.00;99.90;;;;;;5011163;28;20828;-77
2023/07/22 05:02:45;;;;;;;15.77;8.77;;;;;;;;;;4992775;28;20460;-77
2023/07/22 05:05:12;;;;;;;15.93;8.50;;;13.30;99.90;;;;;;5010805;28;20432;-77
2023/07/22 05:07:38;;;;;;;15.80;8.37;;;13.30;99.90;;;;;;5002910;28;20457;-77
2023/07/22 05:10:04;;;;;;;16.03;9.03;;;13.20;99.90;;;;;;5009370;28;20506;-77
2023/07/22 05:12:30;;;;;;;16.55;8.70;;;13.30;99.90;;;;;;4994299;28;20704;-77
2023/07/22 05:14:55;;;;;;;17.50;9.30;;;13.40;99.90;;;;;;5008626;28;20443;-77
2023/07/22 05:17:21;;;;;;;20.00;9.60;;;13.50;99.90;;;;;;5008268;28;20429;-78
2023/07/22 05:19:48;;;;;;;16.23;9.67;;;13.40;99.90;;;;;;5010553;28;20502;-77
2023/07/22 05:22:15;;;;;;;18.37;9.10;;;;;;;;;;5010527;28;20415;-77
2023/07/22 05:24:40;;;;;;;17.77;9.80;;;13.60;99.90;;;;;;5007879;28;20793;-78
2023/07/22 05:27:06;;;;;;;17.90;9.65;;;13.60;99.90;;;;;;4990690;28;20424;-77
2023/07/22 05:29:32;;;;;;;21.65;10.52;;;13.40;99.90;;;;;;5005839;28;20485;-77
2023/07/22 05:31:57;;;;;;;18.10;9.33;;;13.60;99.90;;;;;;5009300;28;20416;-77
2023/07/22 05:34:23;;;;;;;18.53;10.20;;;13.80;99.90;;;;;;5010713;28;20874;-77
2023/07/22 05:36:48;;;;;;;21.88;10.02;;;13.80;99.90;;;;;;4975359;28;20979;-77
2023/07/22 05:39:17;;;;;;;18.95;10.50;;;14.00;99.90;;;;;;5009930;28;20841;-77
2023/07/22 05:41:43;;;;;;;17.20;10.18;;;14.00;99.90;;;;;;4997554;28;20407;-77
2023/07/22 05:44:09;;;;;;;19.83;10.43;;;14.00;99.90;;;;;;5013055;28;20417;-77
2023/07/22 05:46:34;;;;;;;17.38;9.93;;;14.20;99.90;;;;;;5008131;28;20427;-77
2023/07/22 05:49:00;;;;;;;19.13;9.98;;;14.10;99.90;;;;;;5009619;28;20423;-77
2023/07/22 05:51:26;;;;;;;17.90;10.47;;;;;;;;;;5009624;28;20474;-77
2023/07/22 05:53:52;;;;;;;19.63;10.43;;;14.30;99.90;;;;;;4985277;28;20839;-77
2023/07/22 05:56:18;;;;;;;19.92;10.75;;;14.50;99.90;;;;;;5010906;28;20480;-77
2023/07/22 05:58:44;;;;;;;16.63;10.10;;;14.30;99.90;;;;;;5004583;28;20438;-76
2023/07/22 06:01:10;;;;;;;18.52;10.52;;;14.60;99.90;;;;;;4999575;28;20903;-76
2023/07/22 06:03:36;;;;;;;17.58;10.23;;;14.50;99.90;;;;;;4999100;28;20432;-78
2023/07/22 06:06:01;;;;;;;20.15;11.23;;;14.60;99.90;;;;;;5003578;28;20427;-77
2023/07/22 06:08:27;;;;;;;17.83;10.30;;;14.60;99.90;;;;;;4980956;28;20466;-77
2023/07/22 06:10:53;;;;;;;20.10;11.57;;;14.70;99.90;;;;;;4992947;28;20421;-78
2023/07/22 06:13:18;;;;;;;21.73;11.63;;;14.90;99.90;;;;;;5001936;28;20486;-78
2023/07/22 06:15:44;;;;;;;17.27;10.50;;;14.90;99.90;;;;;;5012144;28;20509;-78
2023/07/22 06:18:10;;;;;;;17.67;11.30;;;13.90;99.90;;;;;;5012141;28;20434;-79
2023/07/22 06:20:36;;;;;;;18.52;10.48;;;15.10;99.90;;;;;;4988714;28;20438;-78
2023/07/22 06:23:02;;;;;;;20.33;11.45;;;14.90;99.90;;;;;;4987883;28;20431;-78
2023/07/22 06:25:28;;;;;;;17.70;10.88;;;14.70;99.90;;;;;;5014343;28;20557;-78
2023/07/22 06:27:54;;;;;;;20.55;11.80;;;15.00;99.90;;;;;;4997149;28;20777;-78
2023/07/22 06:30:20;;;;;;;21.58;11.65;;;15.00;99.90;;;;;;4996177;28;21053;-78
2023/07/22 06:32:45;;;;;;;20.75;12.25;;;14.70;99.90;;;;;;5010164;28;20426;-78
2023/07/22 06:35:11;;;;;;;19.27;12.02;;;15.20;99.90;;;;;;5015956;28;20476;-78
2023/07/22 06:37:37;;;;;;;20.50;11.65;;;15.10;99.90;;;;;;5014107;28;20488;-78
2023/07/22 06:40:04;;;;;;;22.33;12.23;;;15.10;99.90;;;;;;4982611;28;20476;-78
2023/07/22 06:42:30;;;;;;;19.77;11.70;;;15.40;99.90;;;;;;4996792;28;20509;-78
2023/07/22 06:44:55;;;;;;;21.08;12.52;;;14.90;99.90;;;;;;5015645;28;20601;-78
2023/07/22 06:47:21;;;;;;;20.80;11.77;;;15.60;99.90;;;;;;4980299;28;20526;-78
2023/07/22 06:49:47;;;;;;;20.42;11.40;;;15.50;99.90;;;;;;5015538;28;20488;-78
2023/07/22 06:52:13;;;;;;;19.60;11.07;;;15.40;99.90;;;;;;4998589;28;20419;-78
2023/07/22 06:54:40;;;;;;;19.48;10.80;;;15.90;99.90;;;;;;4998314;28;20423;-77
2023/07/22 06:57:06;;;;;;;17.08;10.73;;;15.40;99.90;;;;;;5016781;28;20407;-77
2023/07/22 06:59:32;;;;;;;17.58;11.23;;;15.50;99.90;;;;;;4999362;28;20422;-77
2023/07/22 07:01:58;;;;;;;19.40;11.23;;;15.50;99.90;;;;;;5014799;28;20423;-77
2023/07/22 07:04:24;;;;;;;18.13;11.25;;;15.60;99.90;;;;;;4999853;28;20407;-78
2023/07/22 07:06:50;;;;;;;18.63;10.75;;;15.60;99.90;;;;;;5032376;28;20485;-78
2023/07/22 07:09:16;;;;;;;20.40;11.15;;;15.60;99.90;;;;;;5034362;28;20439;-78
2023/07/22 07:11:41;;;;;;;23.58;10.80;;;15.70;99.90;;;;;;5016135;28;20422;-77
2023/07/22 07:14:07;;;;;;;21.85;12.00;;;15.70;99.90;;;;;;4993187;28;20475;-77
2023/07/22 07:16:33;;;;;;;25.30;11.45;;;15.50;99.90;;;;;;5032330;28;20900;-77
2023/07/22 07:19:00;;;;;;;18.05;11.13;;;15.70;99.90;;;;;;5010300;28;20444;-76
2023/07/22 07:21:26;;;;;;;16.92;10.45;;;15.50;99.90;;;;;;4970707;28;20814;-77
2023/07/22 07:23:54;;;;;;;17.33;10.75;;;15.70;99.90;;;;;;5015846;28;20439;-77
2023/07/22 07:26:20;;;;;;;15.87;10.03;;;15.80;99.90;;;;;;4991689;28;20429;-77
2023/07/22 07:28:47;;;;;;;16.45;10.07;;;15.90;99.90;;;;;;5031896;28;20414;-77
2023/07/22 07:31:13;;;;;;;17.85;10.70;;;16.10;99.90;;;;;;5000312;28;20768;-77
2023/07/22 07:33:38;;;;;;;18.23;10.60;;;16.10;99.90;;;;;;5007526;28;20421;-77
2023/07/22 07:36:05;;;;;;;14.95;10.10;;;16.10;99.90;;;;;;4980665;28;20432;-76
2023/07/22 07:38:31;;;;;;;20.33;11.07;;;16.00;99.90;;;;;;4999278;28;20502;-76
2023/07/22 07:40:59;;;;;;;19.27;10.00;;;16.30;99.90;;;;;;5009884;28;20641;-78
2023/07/22 07:43:25;;;;;;;15.52;9.80;;;16.20;99.90;;;;;;4999757;28;20414;-78
2023/07/22 07:46:21;;;;;;;16.67;9.85;;;16.30;99.90;;;;;;4999174;28;20423;-78
2023/07/22 07:48:50;;;;;;;13.13;9.00;;;16.30;99.90;;;;;;5009045;28;20444;-77
2023/07/22 07:51:17;;;;;;;17.10;9.20;;;16.50;99.90;;;;;;5008937;28;20431;-77
2023/07/22 07:53:44;;;;;;;17.38;8.85;;;16.60;99.90;;;;;;5013331;28;20406;-77
2023/07/22 07:56:10;;;;;;;17.13;9.10;;;16.80;99.90;;;;;;5010453;28;20434;-77
2023/07/22 07:58:37;;;;;;;12.60;8.75;;;16.80;99.90;;;;;;5011719;28;20407;-77
2023/07/22 08:01:03;;;;;;;15.50;9.40;;;16.70;99.90;;;;;;5008069;28;20423;-77
2023/07/22 08:03:29;;;;;;;13.48;8.70;;;16.70;99.90;;;;;;4997385;28;20423;-77
2023/07/22 08:05:55;;;;;;;15.07;8.73;;;16.70;99.90;;;;;;5032699;28;20422;-77
2023/07/22 08:08:22;;;;;;;14.73;8.43;;;16.90;99.90;;;;;;5014119;28;20803;-77
2023/07/22 08:10:56;;;;;;;15.52;8.32;;;17.00;99.90;;;;;;5032779;28;20399;-77
2023/07/22 08:13:22;;;;;;;15.52;8.85;;;16.90;99.90;;;;;;4990715;28;20419;-77
2023/07/22 08:15:48;;;;;;;16.45;8.93;;;17.30;99.90;;;;;;4983586;28;20549;-77
2023/07/22 08:18:13;;;;;;;14.43;8.40;;;17.00;99.90;;;;;;5012909;28;20423;-77
2023/07/22 08:20:39;;;;;;;13.57;8.30;;;17.00;99.90;;;;;;4991459;28;20434;-77
2023/07/22 08:23:05;;;;;;;15.38;8.48;;;17.20;99.90;;;;;;4995450;28;21072;-78
2023/07/22 08:25:30;;;;;;;15.00;9.13;;;17.30;99.90;;;;;;5010136;28;20753;-76
2023/07/22 08:27:56;;;;;;;14.60;8.90;;;17.30;99.90;;;;;;5028215;28;21123;-76
2023/07/22 08:30:22;;;;;;;15.83;9.00;;;17.20;99.90;;;;;;4995666;28;20662;-76
2023/07/22 08:32:47;;;;;;;14.68;8.68;;;17.30;99.90;;;;;;5009945;28;20750;-77
2023/07/22 08:35:13;;;;;;;11.30;8.07;;;17.30;99.90;;;;;;5009330;28;20429;-76
2023/07/22 08:37:39;;;;;;;15.53;9.00;;;17.60;99.90;;;;;;5029463;28;20775;-76
2023/07/22 08:40:08;;;;;;;15.70;9.30;;;18.00;99.90;;;;;;5009621;28;20614;-76
2023/07/22 08:42:36;;;;;;;14.33;9.37;;;18.00;99.90;;;;;;5010538;28;20423;-77
2023/07/22 08:45:05;;;;;;;15.60;9.85;;;18.40;99.90;;;;;;5010170;28;20426;-76
2023/07/22 08:47:32;;;;;;;14.82;9.15;;;17.90;99.90;;;;;;5010780;28;20423;-78
2023/07/22 08:50:01;;;;;;;13.80;9.57;;;17.70;99.90;;;;;;5013668;28;21048;-78
2023/07/22 08:52:28;;;;;;;17.73;9.60;;;17.60;99.90;;;;;;5011027;28;20427;-78
2023/07/22 08:54:55;;;;;;;16.23;10.25;;;17.50;99.90;;;;;;4994880;28;20471;-78
2023/07/22 08:57:22;;;;;;;19.50;10.80;;;17.50;99.90;;;;;;5009540;28;20454;-78
2023/07/22 08:59:48;;;;;;;17.38;10.70;;;17.20;99.90;;;;;;5011755;28;20458;-78
2023/07/22 09:02:15;;;;;;;19.33;10.95;;;16.70;99.90;;;;;;4989079;28;20423;-79
2023/07/22 09:04:42;;;;;;;21.63;11.77;;;16.90;99.90;;;;;;5013227;28;20427;-79
2023/07/22 09:07:08;;;;;;;19.77;11.85;;;16.50;99.90;;;;;;4991389;28;20426;-78
2023/07/22 09:09:35;;;;;;;17.52;11.13;;;16.40;99.90;;;;;;5009787;28;20497;-78
2023/07/22 09:12:02;;;;;;;15.43;10.13;;;16.30;99.90;;;;;;5029690;28;20419;-79
2023/07/22 09:14:30;;;;;;;18.50;10.27;;;16.20;99.90;;;;;;5013963;28;20414;-78
2023/07/22 09:16:55;;;;;;;17.83;11.40;;;16.40;99.90;;;;;;5012891;28;20422;-78
2023/07/22 09:19:21;;;;;;;17.90;10.67;;;16.30;99.90;;;;;;5007649;28;20430;-77
2023/07/22 09:21:47;;;;;;;17.17;11.00;;;16.40;99.90;;;;;;4990725;28;20419;-77
2023/07/22 09:24:24;;;;;;;19.02;11.02;;;16.40;99.90;;;;;;5013881;28;20411;-77
2023/07/22 09:26:51;;;;;;;17.08;11.60;;;16.50;99.90;;;;;;4994650;28;20487;-77
2023/07/22 09:29:17;;;;;;;17.30;11.27;;;16.50;99.90;;;;;;5014343;28;20446;-77
2023/07/22 09:31:54;;;;;;;19.85;11.32;;;16.60;99.90;;;;;;5028120;28;20407;-77
2023/07/22 09:34:20;;;;;;;18.63;11.85;;;16.60;99.90;;;;;;5011659;28;20419;-77
2023/07/22 09:36:52;;;;;;;16.55;11.13;;;16.90;99.90;;;;;;4990958;28;20459;-77
2023/07/22 09:39:18;;;;;;;15.75;10.63;;;16.90;99.90;;;;;;5008770;28;20926;-77
2023/07/22 09:41:45;;;;;;;13.25;8.30;;;16.90;99.90;;;;;;5007502;28;20506;-77
2023/07/22 09:44:12;;;;;;;13.38;8.63;;;17.00;99.90;;;;;;4997612;28;20427;-76
2023/07/22 09:46:38;;;;;;;12.05;8.43;;;16.90;99.90;;;;;;4995799;28;20431;-76
2023/07/22 09:49:08;;;;;;;12.05;8.32;;;17.10;99.90;;;;;;5015740;28;20415;-76
2023/07/22 09:51:39;;;;;;;9.80;7.20;;;17.10;99.90;;;;;;5008253;28;20415;-76
2023/07/22 09:54:06;;;;;;;9.93;7.00;;;17.70;99.90;;;;;;5028503;28;20812;-76
2023/07/22 09:56:43;;;;;;;10.80;7.30;;;17.30;99.90;;;;;;4997283;28;20415;-76
2023/07/22 09:59:10;;;;;;;8.73;5.70;;;17.20;99.90;;;;;;5015886;28;20465;-76
2023/07/22 10:01:39;;;;;;;8.10;5.57;;;17.50;99.90;;;;;;5030436;28;20458;-77
2023/07/22 10:04:05;;;;;;;9.03;5.93;;;17.60;99.90;;;;;;5012716;28;20433;-77
2023/07/22 10:06:32;;;;;;;9.02;5.93;;;17.30;99.90;;;;;;5013350;28;20850;-77
2023/07/22 10:09:07;;;;;;;9.93;6.20;;;17.20;99.90;;;;;;5012437;28;20842;-77
2023/07/22 10:11:34;;;;;;;8.75;5.97;;;17.60;99.90;;;;;;5022572;28;20427;-77
2023/07/22 10:14:04;;;;;;;12.27;5.88;;;17.60;99.90;;;;;;5019520;28;20512;-77
2023/07/22 10:16:30;;;;;;;7.82;5.07;;;17.30;99.90;;;;;;5015299;28;20783;-77
2023/07/22 10:18:58;;;;;;;8.90;5.60;;;17.10;99.90;;;;;;4999980;28;20434;-77
2023/07/22 10:21:28;;;;;;;10.82;5.78;;;17.20;99.90;;;;;;5013342;28;20434;-77
2023/07/22 10:23:55;;;;;;;7.57;5.25;;;17.30;99.90;;;;;;5008516;28;20428;-77
2023/07/22 10:26:21;;;;;;;8.10;5.50;;;17.30;99.90;;;;;;5016222;28;20438;-77
2023/07/22 10:28:47;;;;;;;7.57;5.55;;;17.40;99.90;;;;;;5008991;28;20404;-77
2023/07/22 10:31:18;;;;;;;10.33;5.97;;;17.40;99.90;;;;;;4999717;28;20429;-77
2023/07/22 10:33:48;;;;;;;10.07;6.40;;;17.40;99.90;;;;;;4997247;28;20454;-76
2023/07/22 10:36:16;;;;;;;10.15;6.43;;;17.30;99.90;;;;;;5025697;28;20549;-76
2023/07/22 10:38:43;;;;;;;9.63;6.68;;;17.60;99.90;;;;;;5011187;28;20432;-76
2023/07/22 10:41:16;;;;;;;10.70;6.57;;;17.50;99.90;;;;;;5010101;28;20481;-76
2023/07/22 10:43:54;;;;;;;11.10;7.40;;;17.20;99.90;;;;;;5013260;28;20871;-76
2023/07/22 10:46:43;;;;;;;12.33;7.90;;;17.40;99.90;;;;;;5008713;28;20511;-77
2023/07/22 10:49:16;;;;;;;11.57;7.43;;;17.50;99.90;;;;;;4990724;28;20565;-78
2023/07/22 10:51:49;;;;;;;11.38;8.00;;;17.50;99.90;;;;;;4992322;28;20481;-78
2023/07/22 10:54:31;;;;;;;14.18;8.95;;;17.20;99.90;;;;;;5009665;28;20422;-77
2023/07/22 10:57:02;;;;;;;11.98;8.50;;;17.10;99.90;;;;;;4997952;28;20432;-78
2023/07/22 10:59:28;;;;;;;12.93;9.23;;;17.00;99.90;;;;;;5006684;28;20750;-77
2023/07/22 11:01:54;;;;;;;13.32;8.88;;;17.10;99.90;;;;;;4996309;28;20498;-76
2023/07/22 11:04:32;;;;;;;12.48;8.95;;;16.90;99.90;;;;;;4990773;28;20506;-76
2023/07/22 11:07:05;;;;;;;12.95;9.10;;;17.00;99.90;;;;;;4997347;28;20727;-77
2023/07/22 11:09:34;;;;;;;12.55;9.65;;;17.10;99.90;;;;;;4995304;28;20421;-75
2023/07/22 11:12:00;;;;;;;12.38;9.38;;;17.10;99.90;;;;;;4988358;28;20473;-75
2023/07/22 11:14:27;;;;;;;12.63;9.52;;;17.00;99.90;;;;;;5009931;28;21402;-75
2023/07/22 11:16:53;;;;;;;12.80;9.70;;;17.40;99.90;;;;;;5002187;28;20428;-75
2023/07/22 11:19:22;;;;;;;14.05;9.25;;;17.40;99.90;;;;;;5006988;28;20461;-75
2023/07/22 11:21:49;;;;;;;13.52;10.27;;;17.20;99.90;;;;;;4986168;28;20815;-74
2023/07/22 11:24:19;;;;;;;14.27;10.43;;;17.10;99.90;;;;;;5009581;28;20484;-75
2023/07/22 11:26:46;;;;;;;13.77;10.25;;;17.10;99.90;;;;;;4992092;28;20434;-75
2023/07/22 11:29:13;;;;;;;14.47;10.83;;;17.00;99.90;;;;;;5005211;28;20510;-75
2023/07/22 11:31:45;;;;;;;14.17;10.87;;;17.20;99.90;;;;;;4985304;28;20593;-76
2023/07/22 11:34:12;;;;;;;14.23;10.90;;;16.80;99.90;;;;;;5007974;28;20485;-77
2023/07/22 11:36:38;;;;;;;14.90;11.57;;;16.70;99.90;;;;;;5005189;28;20524;-76
2023/07/22 11:39:07;;;;;;;17.25;12.15;;;16.80;99.90;;;;;;4991717;28;20423;-75
2023/07/22 11:41:33;;;;;;;16.13;12.65;;;16.80;99.90;;;;;;5001525;28;20429;-76
2023/07/22 11:44:00;;;;;;;18.00;13.55;;;16.50;99.90;;;;;;5004395;28;20424;-75
2023/07/22 11:46:26;;;;;;;16.70;13.00;;;16.60;99.90;;;;;;5002226;28;20801;-75
2023/07/22 11:48:53;;;;;;;16.05;12.45;;;16.40;99.90;;;;;;4999733;28;20424;-74
2023/07/22 11:51:25;;;;;;;17.88;13.50;;;16.80;99.90;;;;;;5005497;28;20412;-75
2023/07/22 11:53:53;;;;;;;17.73;13.30;;;16.50;99.90;;;;;;5004267;28;20426;-75
2023/07/22 11:56:27;;;;;;;17.00;13.18;;;16.50;99.90;;;;;;5005561;28;20433;-75
2023/07/22 11:58:55;;;;;;;17.92;13.60;;;16.60;99.90;;;;;;5009491;28;20493;-78
2023/07/22 12:01:21;;;;;;;18.83;13.43;;;16.40;99.90;;;;;;5002639;28;20786;-78
2023/07/22 12:03:48;;;;;;;16.92;12.75;;;16.60;99.90;;;;;;5007368;28;20432;-78
2023/07/22 12:06:15;;;;;;;15.90;12.68;;;16.10;99.90;;;;;;5006326;28;20464;-78
2023/07/22 12:08:49;;;;;;;16.45;11.73;;;16.20;99.90;;;;;;4987823;28;20423;-78
2023/07/22 12:11:22;;;;;;;17.55;12.27;;;16.60;99.90;;;;;;5001628;28;20430;-79
2023/07/22 12:14:04;;;;;;;18.38;13.00;;;16.30;99.90;;;;;;4987361;28;20417;-78
2023/07/22 12:16:29;;;;;;;16.83;11.68;;;16.30;99.90;;;;;;5002577;28;20490;-79
2023/07/22 12:18:58;;;;;;;18.05;11.45;;;16.30;99.90;;;;;;5003126;28;20824;-81
2023/07/22 12:21:24;;;;;;;14.30;11.23;;;16.20;99.90;;;;;;4999686;28;20526;-79
2023/07/22 12:23:49;;;;;;;19.45;12.05;;;16.40;99.90;;;;;;4987329;28;20913;-79
2023/07/22 12:26:15;;;;;;;16.45;11.88;;;16.30;99.90;;;;;;4987675;28;20441;-78
2023/07/22 12:28:41;;;;;;;16.60;12.53;;;16.30;99.90;;;;;;5007128;28;20431;-79
2023/07/22 12:31:09;;;;;;;16.95;12.23;;;16.30;99.90;;;;;;5002491;28;21445;-79
2023/07/22 12:33:35;;;;;;;15.40;12.20;;;16.40;99.90;;;;;;4986886;28;20777;-80
2023/07/22 12:36:00;;;;;;;17.53;12.47;;;16.70;99.90;;;;;;5001431;28;20429;-78
2023/07/22 12:38:26;;;;;;;14.13;12.07;;;16.60;99.90;;;;;;5003456;28;20515;-78
2023/07/22 12:40:52;;;;;;;15.60;12.45;;;16.80;99.90;;;;;;5004809;28;20833;-79
2023/07/22 12:43:17;;;;;;;16.23;12.20;;;16.80;99.90;;;;;;4987288;28;20776;-79
2023/07/22 12:45:43;;;;;;;15.50;12.33;;;16.80;99.90;;;;;;4968780;28;20431;-80